sensor_id;sensor_type;location;lat;lon;timestamp;pressure;altitude;pressure_sealevel;temperature;humidity
34983;BME280;21187;50.976;13.720;2023-01-28T00:01:37;98991.44;;;3.49;60.60
34983;BME280;21187;50.976;13.720;2023-01-28T00:06:39;98986.06;;;3.49;60.58
34983;BME280;21187;50.976;13.720;2023-01-28T00:11:41;98990.34;;;3.50;60.71
34983;BME280;21187;50.976;13.720;2023-01-28T00:16:43;98990.34;;;3.50;60.82
34983;BME280;21187;50.976;13.720;2023-01-28T00:21:45;98987.19;;;3.48;60.94
34983;BME280;21187;50.976;13.720;2023-01-28T00:26:47;98996.28;;;3.47;60.91
34983;BME280;21187;50.976;13.720;2023-01-28T00:31:49;98987.47;;;3.42;61.19
34983;BME280;21187;50.976;13.720;2023-01-28T00:36:51;98988.06;;;3.39;61.23
34983;BME280;21187;50.976;13.720;2023-01-28T00:41:57;98984.09;;;3.31;60.74
34983;BME280;21187;50.976;13.720;2023-01-28T00:46:59;98992.69;;;3.28;61.11
34983;BME280;21187;50.976;13.720;2023-01-28T00:52:02;98980.38;;;3.27;61.38
34983;BME280;21187;50.976;13.720;2023-01-28T00:57:04;98990.06;;;3.23;61.24
34983;BME280;21187;50.976;13.720;2023-01-28T01:02:07;98989.59;;;3.15;61.23
34983;BME280;21187;50.976;13.720;2023-01-28T01:07:21;98988.03;;;3.09;60.85
34983;BME280;21187;50.976;13.720;2023-01-28T01:12:23;98985.69;;;3.03;60.96
34983;BME280;21187;50.976;13.720;2023-01-28T01:17:25;98992.91;;;3.02;60.96
34983;BME280;21187;50.976;13.720;2023-01-28T01:22:34;98998.31;;;2.97;61.11
34983;BME280;21187;50.976;13.720;2023-01-28T01:27:37;99014.66;;;2.90;61.01
34983;BME280;21187;50.976;13.720;2023-01-28T01:32:39;99012.81;;;2.86;61.16
34983;BME280;21187;50.976;13.720;2023-01-28T01:37:42;99013.31;;;2.88;61.39
34983;BME280;21187;50.976;13.720;2023-01-28T01:42:45;99020.28;;;2.89;61.29
34983;BME280;21187;50.976;13.720;2023-01-28T01:53:05;99010.13;;;2.91;61.26
34983;BME280;21187;50.976;13.720;2023-01-28T01:58:11;99009.84;;;2.92;61.18
34983;BME280;21187;50.976;13.720;2023-01-28T02:03:16;99012.50;;;2.92;61.12
34983;BME280;21187;50.976;13.720;2023-01-28T02:08:20;99004.19;;;2.94;61.50
34983;BME280;21187;50.976;13.720;2023-01-28T02:13:27;99007.41;;;2.96;60.92
34983;BME280;21187;50.976;13.720;2023-01-28T02:18:33;99009.53;;;2.94;60.94
34983;BME280;21187;50.976;13.720;2023-01-28T02:23:59;99014.41;;;2.92;61.46
34983;BME280;21187;50.976;13.720;2023-01-28T02:34:28;99009.34;;;2.85;61.56
34983;BME280;21187;50.976;13.720;2023-01-28T02:39:36;99000.81;;;2.83;61.49
34983;BME280;21187;50.976;13.720;2023-01-28T02:44:41;99012.81;;;2.86;61.49
34983;BME280;21187;50.976;13.720;2023-01-28T02:49:49;99021.34;;;2.88;60.98
34983;BME280;21187;50.976;13.720;2023-01-28T02:55:14;99016.56;;;2.85;61.45
34983;BME280;21187;50.976;13.720;2023-01-28T03:00:33;99018.16;;;2.86;61.10
34983;BME280;21187;50.976;13.720;2023-01-28T03:05:52;99019.78;;;2.87;61.05
34983;BME280;21187;50.976;13.720;2023-01-28T03:11:05;99024.56;;;2.90;61.45
34983;BME280;21187;50.976;13.720;2023-01-28T03:16:27;99019.22;;;2.90;60.89
34983;BME280;21187;50.976;13.720;2023-01-28T03:21:49;99022.41;;;2.92;61.12
34983;BME280;21187;50.976;13.720;2023-01-28T03:27:28;99031.50;;;2.96;61.30
34983;BME280;21187;50.976;13.720;2023-01-28T03:32:54;99034.69;;;2.93;60.99
34983;BME280;21187;50.976;13.720;2023-01-28T03:38:16;99036.88;;;2.91;61.34
34983;BME280;21187;50.976;13.720;2023-01-28T03:43:22;99036.63;;;2.87;60.94
34983;BME280;21187;50.976;13.720;2023-01-28T03:48:26;99041.72;;;2.83;60.91
34983;BME280;21187;50.976;13.720;2023-01-28T03:53:30;99049.22;;;2.81;60.98
34983;BME280;21187;50.976;13.720;2023-01-28T03:58:32;99044.38;;;2.83;61.21
34983;BME280;21187;50.976;13.720;2023-01-28T04:03:52;99057.25;;;2.81;60.79
34983;BME280;21187;50.976;13.720;2023-01-28T04:09:01;99054.59;;;2.81;61.61
34983;BME280;21187;50.976;13.720;2023-01-28T04:14:29;99057.53;;;2.80;61.03
34983;BME280;21187;50.976;13.720;2023-01-28T04:20:14;99048.72;;;2.74;61.41
34983;BME280;21187;50.976;13.720;2023-01-28T04:25:16;99054.66;;;2.66;61.33
34983;BME280;21187;50.976;13.720;2023-01-28T04:30:19;99057.34;;;2.61;61.14
34983;BME280;21187;50.976;13.720;2023-01-28T04:35:38;99065.13;;;2.57;61.09
34983;BME280;21187;50.976;13.720;2023-01-28T04:41:00;99063.84;;;2.49;61.29
34983;BME280;21187;50.976;13.720;2023-01-28T04:46:07;99064.91;;;2.43;60.78
34983;BME280;21187;50.976;13.720;2023-01-28T04:51:21;99072.97;;;2.33;60.84
34983;BME280;21187;50.976;13.720;2023-01-28T04:56:49;99072.47;;;2.26;61.11
34983;BME280;21187;50.976;13.720;2023-01-28T05:01:52;99083.19;;;2.21;60.89
34983;BME280;21187;50.976;13.720;2023-01-28T05:06:55;99088.53;;;2.15;60.60
34983;BME280;21187;50.976;13.720;2023-01-28T05:12:02;99090.94;;;2.12;61.01
34983;BME280;21187;50.976;13.720;2023-01-28T05:17:05;99092.56;;;2.03;60.58
34983;BME280;21187;50.976;13.720;2023-01-28T05:22:07;99096.56;;;1.95;60.67
34983;BME280;21187;50.976;13.720;2023-01-28T05:27:15;99099.81;;;1.87;60.39
34983;BME280;21187;50.976;13.720;2023-01-28T05:32:17;99105.16;;;1.76;60.18
34983;BME280;21187;50.976;13.720;2023-01-28T05:37:19;99102.47;;;1.66;60.00
34983;BME280;21187;50.976;13.720;2023-01-28T05:42:24;99111.31;;;1.56;59.89
34983;BME280;21187;50.976;13.720;2023-01-28T05:47:41;99116.91;;;1.55;60.35
34983;BME280;21187;50.976;13.720;2023-01-28T05:53:11;99121.69;;;1.47;60.05
34983;BME280;21187;50.976;13.720;2023-01-28T05:58:17;99121.69;;;1.42;60.18
34983;BME280;21187;50.976;13.720;2023-01-28T06:03:18;99130.25;;;1.44;60.17
34983;BME280;21187;50.976;13.720;2023-01-28T06:08:20;99138.53;;;1.43;59.96
34983;BME280;21187;50.976;13.720;2023-01-28T06:13:23;99151.03;;;1.37;59.73
34983;BME280;21187;50.976;13.720;2023-01-28T06:19:00;99155.88;;;1.40;59.80
34983;BME280;21187;50.976;13.720;2023-01-28T06:24:02;99162.78;;;1.31;59.77
34983;BME280;21187;50.976;13.720;2023-01-28T06:29:05;99178.81;;;1.31;59.76
34983;BME280;21187;50.976;13.720;2023-01-28T06:34:08;99171.31;;;1.33;59.75
34983;BME280;21187;50.976;13.720;2023-01-28T06:39:10;99182.81;;;1.33;59.40
34983;BME280;21187;50.976;13.720;2023-01-28T06:44:12;99187.34;;;1.33;59.62
34983;BME280;21187;50.976;13.720;2023-01-28T06:49:14;99190.81;;;1.33;59.57
34983;BME280;21187;50.976;13.720;2023-01-28T06:54:16;99200.69;;;1.33;59.42
34983;BME280;21187;50.976;13.720;2023-01-28T06:59:18;99213.25;;;1.38;59.35
34983;BME280;21187;50.976;13.720;2023-01-28T07:04:20;99217.25;;;1.35;59.36
34983;BME280;21187;50.976;13.720;2023-01-28T07:09:22;99223.63;;;1.29;59.12
34983;BME280;21187;50.976;13.720;2023-01-28T07:14:23;99226.81;;;1.21;59.12
34983;BME280;21187;50.976;13.720;2023-01-28T07:19:25;99227.03;;;1.14;58.92
34983;BME280;21187;50.976;13.720;2023-01-28T07:24:28;99223.78;;;0.96;58.91
34983;BME280;21187;50.976;13.720;2023-01-28T07:29:30;99231.50;;;0.93;58.80
34983;BME280;21187;50.976;13.720;2023-01-28T07:34:32;99233.34;;;0.87;58.97
34983;BME280;21187;50.976;13.720;2023-01-28T07:39:34;99234.16;;;0.93;59.00
34983;BME280;21187;50.976;13.720;2023-01-28T07:44:37;99232.56;;;0.97;58.76
34983;BME280;21187;50.976;13.720;2023-01-28T07:49:39;99236.28;;;0.96;58.61
34983;BME280;21187;50.976;13.720;2023-01-28T07:54:41;99237.91;;;0.97;58.57
34983;BME280;21187;50.976;13.720;2023-01-28T07:59:43;99240.28;;;0.93;58.32
34983;BME280;21187;50.976;13.720;2023-01-28T08:04:45;99240.53;;;0.92;58.22
34983;BME280;21187;50.976;13.720;2023-01-28T08:09:47;99244.78;;;0.88;58.20
34983;BME280;21187;50.976;13.720;2023-01-28T08:14:49;99246.66;;;0.87;58.12
34983;BME280;21187;50.976;13.720;2023-01-28T08:19:51;99251.44;;;0.85;57.96
34983;BME280;21187;50.976;13.720;2023-01-28T08:24:53;99242.13;;;0.88;58.03
34983;BME280;21187;50.976;13.720;2023-01-28T08:29:54;99248.28;;;0.93;57.95
34983;BME280;21187;50.976;13.720;2023-01-28T08:34:56;99250.97;;;0.98;57.91
34983;BME280;21187;50.976;13.720;2023-01-28T08:39:58;99250.72;;;1.00;57.91
34983;BME280;21187;50.976;13.720;2023-01-28T08:45:00;99254.47;;;1.04;57.81
34983;BME280;21187;50.976;13.720;2023-01-28T08:50:02;99257.16;;;1.09;58.01
34983;BME280;21187;50.976;13.720;2023-01-28T08:55:04;99267.84;;;1.14;57.73
34983;BME280;21187;50.976;13.720;2023-01-28T09:00:07;99263.09;;;1.22;57.72
34983;BME280;21187;50.976;13.720;2023-01-28T09:05:11;99276.69;;;1.25;57.58
34983;BME280;21187;50.976;13.720;2023-01-28T09:10:13;99282.31;;;1.29;57.72
34983;BME280;21187;50.976;13.720;2023-01-28T09:15:17;99279.69;;;1.34;57.77
34983;BME280;21187;50.976;13.720;2023-01-28T09:20:19;99280.75;;;1.38;57.74
34983;BME280;21187;50.976;13.720;2023-01-28T09:25:21;99285.59;;;1.46;57.71
34983;BME280;21187;50.976;13.720;2023-01-28T09:30:23;99287.22;;;1.53;57.59
34983;BME280;21187;50.976;13.720;2023-01-28T09:35:25;99293.13;;;1.60;57.44
34983;BME280;21187;50.976;13.720;2023-01-28T09:45:45;99292.59;;;1.63;57.21
34983;BME280;21187;50.976;13.720;2023-01-28T09:50:49;99289.38;;;1.61;57.45
34983;BME280;21187;50.976;13.720;2023-01-28T09:56:04;99290.47;;;1.65;57.29
34983;BME280;21187;50.976;13.720;2023-01-28T10:11:44;99308.09;;;1.66;57.33
34983;BME280;21187;50.976;13.720;2023-01-28T10:22:43;99298.97;;;1.57;56.94
34983;BME280;21187;50.976;13.720;2023-01-28T10:27:47;99293.09;;;1.49;56.88
34983;BME280;21187;50.976;13.720;2023-01-28T10:38:29;99306.97;;;1.52;56.84
34983;BME280;21187;50.976;13.720;2023-01-28T10:43:33;99308.59;;;1.53;56.81
34983;BME280;21187;50.976;13.720;2023-01-28T10:48:43;99317.91;;;1.50;56.59
34983;BME280;21187;50.976;13.720;2023-01-28T10:53:46;99324.31;;;1.49;56.52
34983;BME280;21187;50.976;13.720;2023-01-28T11:04:00;99327.25;;;1.47;56.20
34983;BME280;21187;50.976;13.720;2023-01-28T11:09:02;99320.59;;;1.50;56.65
34983;BME280;21187;50.976;13.720;2023-01-28T11:14:04;99326.75;;;1.56;56.19
34983;BME280;21187;50.976;13.720;2023-01-28T11:19:06;99327.81;;;1.55;56.22
34983;BME280;21187;50.976;13.720;2023-01-28T11:24:14;99316.06;;;1.56;56.20
34983;BME280;21187;50.976;13.720;2023-01-28T11:29:30;99320.34;;;1.57;56.24
34983;BME280;21187;50.976;13.720;2023-01-28T11:34:33;99316.63;;;1.58;56.12
34983;BME280;21187;50.976;13.720;2023-01-28T11:39:35;99314.50;;;1.60;56.25
34983;BME280;21187;50.976;13.720;2023-01-28T11:44:38;99308.59;;;1.58;56.01
34983;BME280;21187;50.976;13.720;2023-01-28T12:16:06;99286.09;;;1.38;55.90
34983;BME280;21187;50.976;13.720;2023-01-28T12:21:29;99280.50;;;1.40;55.78
34983;BME280;21187;50.976;13.720;2023-01-28T12:32:02;99277.59;;;1.46;55.53
34983;BME280;21187;50.976;13.720;2023-01-28T12:43:05;99289.31;;;1.40;55.70
34983;BME280;21187;50.976;13.720;2023-01-28T12:48:22;99275.44;;;1.43;55.76
34983;BME280;21187;50.976;13.720;2023-01-28T12:53:37;99276.53;;;1.47;55.73
34983;BME280;21187;50.976;13.720;2023-01-28T13:03:55;99281.84;;;1.42;55.29
34983;BME280;21187;50.976;13.720;2023-01-28T13:09:01;99277.31;;;1.43;55.40
34983;BME280;21187;50.976;13.720;2023-01-28T13:14:04;99265.81;;;1.42;55.37
34983;BME280;21187;50.976;13.720;2023-01-28T13:19:21;99271.16;;;1.42;55.27
34983;BME280;21187;50.976;13.720;2023-01-28T13:24:30;99269.03;;;1.44;55.14
34983;BME280;21187;50.976;13.720;2023-01-28T13:29:33;99274.41;;;1.49;55.41
34983;BME280;21187;50.976;13.720;2023-01-28T13:34:37;99279.47;;;1.51;55.18
34983;BME280;21187;50.976;13.720;2023-01-28T13:39:46;99273.34;;;1.51;55.58
34983;BME280;21187;50.976;13.720;2023-01-28T13:44:49;99279.78;;;1.55;55.03
34983;BME280;21187;50.976;13.720;2023-01-28T13:49:57;99293.13;;;1.60;55.41
34983;BME280;21187;50.976;13.720;2023-01-28T13:55:12;99290.69;;;1.58;55.33
34983;BME280;21187;50.976;13.720;2023-01-28T14:06:32;99314.50;;;1.60;55.17
34983;BME280;21187;50.976;13.720;2023-01-28T14:22:36;99318.22;;;1.59;55.07
34983;BME280;21187;50.976;13.720;2023-01-28T14:27:41;99318.25;;;1.64;55.23
34983;BME280;21187;50.976;13.720;2023-01-28T14:32:49;99316.63;;;1.63;55.20
34983;BME280;21187;50.976;13.720;2023-01-28T14:37:53;99324.09;;;1.66;55.32
34983;BME280;21187;50.976;13.720;2023-01-28T14:42:56;99315.03;;;1.67;55.37
34983;BME280;21187;50.976;13.720;2023-01-28T14:58:41;99311.28;;;1.58;55.21
34983;BME280;21187;50.976;13.720;2023-01-28T15:03:45;99313.91;;;1.53;54.99
34983;BME280;21187;50.976;13.720;2023-01-28T15:08:47;99321.38;;;1.45;55.24
34983;BME280;21187;50.976;13.720;2023-01-28T15:13:55;99324.06;;;1.51;55.10
34983;BME280;21187;50.976;13.720;2023-01-28T15:19:00;99312.84;;;1.48;54.87
34983;BME280;21187;50.976;13.720;2023-01-28T15:24:02;99315.78;;;1.47;55.26
34983;BME280;21187;50.976;13.720;2023-01-28T15:29:05;99322.44;;;1.44;55.01
34983;BME280;21187;50.976;13.720;2023-01-28T15:34:15;99309.88;;;1.45;55.09
34983;BME280;21187;50.976;13.720;2023-01-28T15:39:19;99298.44;;;1.49;55.09
34983;BME280;21187;50.976;13.720;2023-01-28T15:44:42;99314.22;;;1.56;55.16
34983;BME280;21187;50.976;13.720;2023-01-28T15:49:47;99298.72;;;1.63;54.96
34983;BME280;21187;50.976;13.720;2023-01-28T15:54:51;99290.47;;;1.70;55.17
34983;BME280;21187;50.976;13.720;2023-01-28T16:00:22;99279.81;;;1.65;54.80
34983;BME280;21187;50.976;13.720;2023-01-28T16:05:28;99295.53;;;1.61;54.98
34983;BME280;21187;50.976;13.720;2023-01-28T16:10:31;99280.31;;;1.62;54.62
34983;BME280;21187;50.976;13.720;2023-01-28T16:15:34;99282.97;;;1.62;54.56
34983;BME280;21187;50.976;13.720;2023-01-28T16:25:45;99286.19;;;1.59;54.22
34983;BME280;21187;50.976;13.720;2023-01-28T16:30:47;99288.84;;;1.54;54.42
34983;BME280;21187;50.976;13.720;2023-01-28T16:35:49;99294.72;;;1.51;54.58
34983;BME280;21187;50.976;13.720;2023-01-28T16:41:14;99301.38;;;1.48;54.23
34983;BME280;21187;50.976;13.720;2023-01-28T16:46:16;99302.69;;;1.45;54.29
34983;BME280;21187;50.976;13.720;2023-01-28T16:51:18;99309.59;;;1.36;54.46
34983;BME280;21187;50.976;13.720;2023-01-28T16:56:24;99312.50;;;1.35;54.24
34983;BME280;21187;50.976;13.720;2023-01-28T17:01:46;99307.38;;;1.18;54.57
34983;BME280;21187;50.976;13.720;2023-01-28T17:06:48;99305.81;;;1.27;54.66
34983;BME280;21187;50.976;13.720;2023-01-28T17:11:51;99310.88;;;1.23;54.63
34983;BME280;21187;50.976;13.720;2023-01-28T17:16:53;99311.03;;;1.06;54.58
34983;BME280;21187;50.976;13.720;2023-01-28T17:21:56;99330.31;;;1.19;54.70
34983;BME280;21187;50.976;13.720;2023-01-28T17:26:58;99331.97;;;1.30;54.32
34983;BME280;21187;50.976;13.720;2023-01-28T17:32:00;99327.16;;;1.27;54.22
34983;BME280;21187;50.976;13.720;2023-01-28T17:37:02;99346.94;;;1.31;54.17
34983;BME280;21187;50.976;13.720;2023-01-28T17:42:04;99349.59;;;1.31;54.24
34983;BME280;21187;50.976;13.720;2023-01-28T17:47:06;99366.72;;;1.35;54.37
34983;BME280;21187;50.976;13.720;2023-01-28T17:52:08;99376.22;;;1.21;54.41
34983;BME280;21187;50.976;13.720;2023-01-28T17:57:10;99382.66;;;1.25;54.59
34983;BME280;21187;50.976;13.720;2023-01-28T18:02:12;99378.09;;;1.25;54.39
34983;BME280;21187;50.976;13.720;2023-01-28T18:07:14;99376.28;;;1.31;54.32
34983;BME280;21187;50.976;13.720;2023-01-28T18:12:17;99372.56;;;1.37;54.37
34983;BME280;21187;50.976;13.720;2023-01-28T18:17:19;99368.56;;;1.35;54.28
34983;BME280;21187;50.976;13.720;2023-01-28T18:22:27;99369.25;;;1.14;54.18
34983;BME280;21187;50.976;13.720;2023-01-28T18:27:29;99368.16;;;1.10;54.37
34983;BME280;21187;50.976;13.720;2023-01-28T18:32:30;99363.94;;;1.20;54.31
34983;BME280;21187;50.976;13.720;2023-01-28T18:37:33;99381.91;;;1.29;54.32
34983;BME280;21187;50.976;13.720;2023-01-28T18:42:34;99383.50;;;1.36;54.10
34983;BME280;21187;50.976;13.720;2023-01-28T18:47:38;99391.19;;;1.22;53.83
34983;BME280;21187;50.976;13.720;2023-01-28T18:52:40;99394.56;;;1.12;54.24
34983;BME280;21187;50.976;13.720;2023-01-28T18:57:42;99404.53;;;1.22;54.29
34983;BME280;21187;50.976;13.720;2023-01-28T19:02:44;99402.91;;;1.21;54.36
34983;BME280;21187;50.976;13.720;2023-01-28T19:07:47;99422.59;;;1.14;54.41
34983;BME280;21187;50.976;13.720;2023-01-28T19:12:49;99442.91;;;1.15;54.57
34983;BME280;21187;50.976;13.720;2023-01-28T19:17:51;99450.34;;;1.13;54.47
34983;BME280;21187;50.976;13.720;2023-01-28T19:22:54;99452.44;;;1.06;54.46
34983;BME280;21187;50.976;13.720;2023-01-28T19:27:56;99449.47;;;1.03;54.94
34983;BME280;21187;50.976;13.720;2023-01-28T19:32:58;99443.91;;;1.09;54.86
34983;BME280;21187;50.976;13.720;2023-01-28T19:38:01;99448.75;;;1.12;54.64
34983;BME280;21187;50.976;13.720;2023-01-28T19:43:04;99428.44;;;1.06;54.75
34983;BME280;21187;50.976;13.720;2023-01-28T19:48:06;99443.19;;;0.87;55.39
34983;BME280;21187;50.976;13.720;2023-01-28T19:53:07;99409.53;;;0.80;55.13
34983;BME280;21187;50.976;13.720;2023-01-28T19:58:10;99411.50;;;0.90;55.24
34983;BME280;21187;50.976;13.720;2023-01-28T20:03:15;99415.03;;;1.01;55.17
34983;BME280;21187;50.976;13.720;2023-01-28T20:08:17;99421.47;;;1.05;54.78
34983;BME280;21187;50.976;13.720;2023-01-28T20:13:19;99413.44;;;1.00;55.15
34983;BME280;21187;50.976;13.720;2023-01-28T20:18:21;99401.19;;;0.99;55.08
34983;BME280;21187;50.976;13.720;2023-01-28T20:23:23;99403.28;;;0.97;55.11
34983;BME280;21187;50.976;13.720;2023-01-28T20:28:26;99396.16;;;1.08;55.30
34983;BME280;21187;50.976;13.720;2023-01-28T20:33:28;99386.84;;;1.10;55.13
34983;BME280;21187;50.976;13.720;2023-01-28T20:38:34;99374.50;;;0.99;55.15
34983;BME280;21187;50.976;13.720;2023-01-28T20:43:37;99379.84;;;0.99;55.31
34983;BME280;21187;50.976;13.720;2023-01-28T20:48:40;99369.13;;;0.94;55.25
34983;BME280;21187;50.976;13.720;2023-01-28T20:53:48;99370.22;;;0.98;55.55
34983;BME280;21187;50.976;13.720;2023-01-28T20:58:56;99393.47;;;1.08;55.07
34983;BME280;21187;50.976;13.720;2023-01-28T21:03:58;99388.97;;;1.13;55.28
34983;BME280;21187;50.976;13.720;2023-01-28T21:09:01;99398.09;;;1.18;54.93
34983;BME280;21187;50.976;13.720;2023-01-28T21:14:03;99406.97;;;0.91;55.04
34983;BME280;21187;50.976;13.720;2023-01-28T21:19:05;99406.75;;;0.65;55.87
34983;BME280;21187;50.976;13.720;2023-01-28T21:24:07;99420.41;;;0.74;55.81
34983;BME280;21187;50.976;13.720;2023-01-28T21:29:09;99429.28;;;0.79;55.62
34983;BME280;21187;50.976;13.720;2023-01-28T21:34:11;99434.16;;;0.88;55.55
34983;BME280;21187;50.976;13.720;2023-01-28T21:39:15;99441.09;;;0.89;55.45
34983;BME280;21187;50.976;13.720;2023-01-28T21:44:16;99427.56;;;0.95;55.18
34983;BME280;21187;50.976;13.720;2023-01-28T21:49:18;99445.34;;;0.90;55.34
34983;BME280;21187;50.976;13.720;2023-01-28T21:54:20;99433.00;;;0.78;55.15
34983;BME280;21187;50.976;13.720;2023-01-28T21:59:22;99442.00;;;0.72;55.63
34983;BME280;21187;50.976;13.720;2023-01-28T22:04:33;99423.88;;;0.69;55.33
34983;BME280;21187;50.976;13.720;2023-01-28T22:09:36;99422.72;;;0.60;55.28
34983;BME280;21187;50.976;13.720;2023-01-28T22:14:38;99435.03;;;0.66;55.42
34983;BME280;21187;50.976;13.720;2023-01-28T22:19:40;99424.91;;;0.68;55.17
34983;BME280;21187;50.976;13.720;2023-01-28T22:24:48;99416.34;;;0.61;55.24
34983;BME280;21187;50.976;13.720;2023-01-28T22:29:50;99405.16;;;0.64;55.12
34983;BME280;21187;50.976;13.720;2023-01-28T22:34:52;99406.75;;;0.65;55.00
34983;BME280;21187;50.976;13.720;2023-01-28T22:39:54;99395.88;;;0.72;55.09
34983;BME280;21187;50.976;13.720;2023-01-28T22:44:56;99392.00;;;0.85;55.01
34983;BME280;21187;50.976;13.720;2023-01-28T22:49:58;99386.09;;;0.82;54.63
34983;BME280;21187;50.976;13.720;2023-01-28T22:55:00;99390.81;;;0.70;54.88
34983;BME280;21187;50.976;13.720;2023-01-28T23:00:05;99388.63;;;0.67;54.85
34983;BME280;21187;50.976;13.720;2023-01-28T23:05:09;99388.53;;;0.57;55.03
34983;BME280;21187;50.976;13.720;2023-01-28T23:10:11;99395.97;;;0.49;55.26
34983;BME280;21187;50.976;13.720;2023-01-28T23:15:13;99393.56;;;0.48;55.26
34983;BME280;21187;50.976;13.720;2023-01-28T23:20:33;99405.56;;;0.51;55.13
34983;BME280;21187;50.976;13.720;2023-01-28T23:25:54;99394.34;;;0.48;55.02
34983;BME280;21187;50.976;13.720;2023-01-28T23:30:56;99404.22;;;0.48;55.46
34983;BME280;21187;50.976;13.720;2023-01-28T23:35:58;99388.91;;;0.38;55.48
34983;BME280;21187;50.976;13.720;2023-01-28T23:41:00;99387.88;;;0.39;55.30
34983;BME280;21187;50.976;13.720;2023-01-28T23:46:03;99393.19;;;0.39;55.42
34983;BME280;21187;50.976;13.720;2023-01-28T23:51:04;99404.88;;;0.33;55.46
34983;BME280;21187;50.976;13.720;2023-01-28T23:56:09;99406.25;;;0.41;55.19
